createdAt,value
2022-10-23T00:00:43.999Z,100154.06
2022-10-23T00:03:14.184Z,100169.06
2022-10-23T00:05:45.215Z,100161.63
2022-10-23T00:08:17.693Z,100162.59
2022-10-23T00:10:47.764Z,100171.47
2022-10-23T00:13:17.908Z,100173.53
2022-10-23T00:18:41.137Z,100178.19
2022-10-23T00:21:16.996Z,100189.13
2022-10-23T00:23:47.494Z,100178.31
2022-10-23T00:26:19.974Z,100183.00
2022-10-23T00:28:51.939Z,100177.84
2022-10-23T00:31:26.028Z,100189.13
2022-10-23T00:33:56.249Z,100184.44
2022-10-23T00:36:26.310Z,100181.91
2022-10-23T00:38:57.635Z,100181.63
2022-10-23T00:41:32.311Z,100184.44
2022-10-23T00:44:07.079Z,100189.97
2022-10-23T00:46:41.355Z,100189.84
2022-10-23T00:52:06.174Z,100194.53
2022-10-23T00:54:39.406Z,100195.13
2022-10-23T00:57:14.420Z,100210.16
2022-10-23T00:59:44.837Z,100196.47
2022-10-23T01:02:18.449Z,100211.00
2022-10-23T01:04:48.697Z,100215.66
2022-10-23T01:07:23.146Z,100216.63
2022-10-23T01:10:13.157Z,100210.03
2022-10-23T01:12:50.009Z,100210.25
2022-10-23T01:15:24.828Z,100226.84
2022-10-23T01:18:04.803Z,100220.59
2022-10-23T01:20:44.870Z,100226.88
2022-10-23T01:23:29.307Z,100220.38
2022-10-23T01:26:14.138Z,100217.25
2022-10-23T01:28:51.527Z,100225.66
2022-10-23T01:31:26.322Z,100213.41
2022-10-23T01:34:02.677Z,100223.00
2022-10-23T01:36:35.472Z,100224.09
2022-10-23T01:39:09.879Z,100222.91
2022-10-23T01:41:46.008Z,100220.88
2022-10-23T01:44:25.004Z,100226.34
2022-10-23T01:46:57.500Z,100241.22
2022-10-23T01:49:27.805Z,100241.00
2022-10-23T01:52:05.358Z,100241.22
2022-10-23T01:54:41.986Z,100238.31
2022-10-23T01:57:15.881Z,100248.03
2022-10-23T01:59:50.430Z,100248.78
2022-10-23T02:02:23.408Z,100246.47
2022-10-23T02:04:59.837Z,100246.13
2022-10-23T02:07:30.089Z,100240.81
2022-10-23T02:10:00.240Z,100247.25
2022-10-23T02:12:36.616Z,100251.81
2022-10-23T02:15:15.081Z,100255.41
2022-10-23T02:17:52.653Z,100261.03
2022-10-23T02:20:26.759Z,100269.28
2022-10-23T02:22:59.802Z,100269.84
2022-10-23T02:25:36.370Z,100270.19
2022-10-23T02:28:11.029Z,100268.22
2022-10-23T02:30:46.943Z,100274.97
2022-10-23T02:33:17.941Z,100279.84
2022-10-23T02:35:49.399Z,100267.78
2022-10-23T02:38:36.665Z,100288.75
2022-10-23T02:41:19.084Z,100288.25
2022-10-23T02:43:59.269Z,100297.31
2022-10-23T02:46:45.503Z,100307.34
2022-10-23T02:49:21.970Z,100308.38
2022-10-23T02:52:02.752Z,100314.13
2022-10-23T02:54:48.529Z,100321.38
2022-10-23T02:57:25.688Z,100320.66
2022-10-23T03:00:04.705Z,100328.22
2022-10-23T03:02:41.872Z,100320.13
2022-10-23T03:05:15.584Z,100325.13
2022-10-23T03:07:47.035Z,100328.63
2022-10-23T03:10:17.118Z,100338.56
2022-10-23T03:12:47.538Z,100347.81
2022-10-23T03:15:19.441Z,100348.13
2022-10-23T03:17:52.186Z,100358.03
2022-10-23T03:20:22.216Z,100354.78
2022-10-23T03:22:52.352Z,100361.31
2022-10-23T03:25:22.312Z,100355.63
2022-10-23T03:27:54.538Z,100364.38
2022-10-23T03:30:24.631Z,100364.28
2022-10-23T03:32:57.236Z,100365.22
2022-10-23T03:35:27.238Z,100355.63
2022-10-23T03:37:57.291Z,100351.72
2022-10-23T03:40:27.412Z,100357.47
2022-10-23T03:42:57.549Z,100352.69
2022-10-23T03:45:27.612Z,100355.75
2022-10-23T03:48:00.262Z,100361.44
2022-10-23T03:50:30.466Z,100359.94
2022-10-23T03:53:00.712Z,100360.13
2022-10-23T03:55:31.420Z,100349.69
2022-10-23T03:58:01.647Z,100363.72
2022-10-23T04:00:31.792Z,100361.97
2022-10-23T04:03:04.523Z,100350.50
2022-10-23T04:05:34.473Z,100351.56
2022-10-23T04:08:05.162Z,100356.44
2022-10-23T04:10:35.153Z,100368.03
2022-10-23T04:13:05.220Z,100364.88
2022-10-23T04:15:35.238Z,100372.25
2022-10-23T04:18:08.452Z,100373.53
2022-10-23T04:20:38.489Z,100381.75
2022-10-23T04:23:08.794Z,100375.94
2022-10-23T04:25:38.875Z,100378.91
2022-10-23T04:28:09.001Z,100380.06
2022-10-23T04:30:39.001Z,100388.50
2022-10-23T04:33:11.668Z,100383.53
2022-10-23T04:35:41.694Z,100386.38
2022-10-23T04:38:11.680Z,100386.59
2022-10-23T04:40:41.664Z,100388.47
2022-10-23T04:43:12.070Z,100389.22
2022-10-23T04:45:42.076Z,100391.84
2022-10-23T04:48:15.985Z,100389.75
2022-10-23T04:53:36.137Z,100388.06
2022-10-23T04:56:06.231Z,100378.56
2022-10-23T04:58:37.410Z,100382.06
2022-10-23T05:01:07.597Z,100386.56
2022-10-23T05:03:41.056Z,100390.91
2022-10-23T05:06:11.127Z,100381.09
2022-10-23T05:08:41.250Z,100388.91
2022-10-23T05:11:11.276Z,100390.59
2022-10-23T05:13:42.257Z,100390.19
2022-10-23T05:16:12.628Z,100397.94
2022-10-23T05:18:53.049Z,100393.84
2022-10-23T05:21:26.534Z,100397.31
2022-10-23T05:23:57.573Z,100412.94
2022-10-23T05:26:28.226Z,100406.19
2022-10-23T05:28:58.247Z,100415.00
2022-10-23T05:31:28.827Z,100418.78
2022-10-23T05:34:01.489Z,100435.34
2022-10-23T05:36:31.613Z,100436.06
2022-10-23T05:39:05.001Z,100422.50
2022-10-23T05:41:35.112Z,100426.84
2022-10-23T05:44:05.191Z,100429.16
2022-10-23T05:46:35.204Z,100444.66
2022-10-23T05:49:07.961Z,100442.75
2022-10-23T05:51:39.618Z,100443.16
2022-10-23T05:54:10.600Z,100445.31
2022-10-23T05:56:42.304Z,100455.44
2022-10-23T05:59:13.169Z,100466.09
2022-10-23T06:01:43.604Z,100467.56
2022-10-23T06:04:16.334Z,100463.13
2022-10-23T06:06:49.181Z,100466.53
2022-10-23T06:09:19.472Z,100474.13
2022-10-23T06:11:50.309Z,100475.09
2022-10-23T06:14:20.497Z,100473.06
2022-10-23T06:16:50.620Z,100474.03
2022-10-23T06:19:23.336Z,100476.13
2022-10-23T06:21:53.390Z,100468.16
2022-10-23T06:24:23.600Z,100466.88
2022-10-23T06:26:53.557Z,100462.50
2022-10-23T06:29:23.878Z,100474.47
2022-10-23T06:31:53.926Z,100484.44
2022-10-23T06:34:26.653Z,100484.38
2022-10-23T06:36:56.742Z,100494.66
2022-10-23T06:39:29.772Z,100496.75
2022-10-23T06:42:02.122Z,100498.69
2022-10-23T06:44:32.321Z,100495.66
2022-10-23T06:47:02.421Z,100505.97
2022-10-23T06:49:35.220Z,100502.56
2022-10-23T06:52:05.214Z,100508.00
2022-10-23T06:54:35.430Z,100498.94
2022-10-23T06:57:05.559Z,100495.16
2022-10-23T06:59:35.775Z,100495.88
2022-10-23T07:02:06.423Z,100484.53
2022-10-23T07:04:41.637Z,100491.09
2022-10-23T07:07:11.727Z,100480.75
2022-10-23T07:09:41.819Z,100483.63
2022-10-23T07:12:12.016Z,100485.91
2022-10-23T07:14:42.146Z,100495.59
2022-10-23T07:17:12.240Z,100490.41
2022-10-23T07:19:44.966Z,100499.19
2022-10-23T07:22:16.094Z,100497.41
2022-10-23T07:24:46.341Z,100497.47
2022-10-23T07:27:16.452Z,100496.97
2022-10-23T07:29:46.629Z,100498.19
2022-10-23T07:32:16.735Z,100489.31
2022-10-23T07:34:49.435Z,100484.28
2022-10-23T07:37:19.542Z,100489.41
2022-10-23T07:39:49.675Z,100494.66
2022-10-23T07:42:19.793Z,100486.41
2022-10-23T07:44:49.825Z,100486.06
2022-10-23T07:47:19.890Z,100486.50
2022-10-23T07:49:53.223Z,100469.56
2022-10-23T07:52:23.352Z,100487.22
2022-10-23T07:54:54.180Z,100494.13
2022-10-23T07:57:24.335Z,100507.16
2022-10-23T07:59:54.760Z,100502.91
2022-10-23T08:02:25.807Z,100504.78
2022-10-23T08:05:00.554Z,100506.31
2022-10-23T08:07:33.792Z,100505.41
2022-10-23T08:10:03.887Z,100511.25
2022-10-23T08:12:34.029Z,100516.34
2022-10-23T08:15:04.604Z,100515.38
2022-10-23T08:17:34.770Z,100518.28
2022-10-23T08:20:08.779Z,100522.09
2022-10-23T08:22:39.175Z,100527.22
2022-10-23T08:25:09.750Z,100530.75
2022-10-23T08:27:40.049Z,100525.41
2022-10-23T08:30:11.472Z,100522.56
2022-10-23T08:32:41.741Z,100522.44
2022-10-23T08:35:14.480Z,100517.28
2022-10-23T08:37:44.938Z,100516.44
2022-10-23T08:40:18.653Z,100518.84
2022-10-23T08:42:55.368Z,100521.00
2022-10-23T08:45:34.190Z,100527.81
2022-10-23T08:48:12.841Z,100519.75
2022-10-23T08:50:52.387Z,100519.09
2022-10-23T08:53:28.492Z,100526.03
2022-10-23T08:56:04.969Z,100533.50
2022-10-23T08:58:45.952Z,100535.34
2022-10-23T09:01:39.131Z,100526.66
2022-10-23T09:04:09.641Z,100529.03
2022-10-23T09:06:47.335Z,100532.66
2022-10-23T09:09:34.971Z,100537.13
2022-10-23T09:12:10.058Z,100528.94
2022-10-23T09:15:05.662Z,100534.34
2022-10-23T09:17:38.104Z,100542.47
2022-10-23T09:20:27.408Z,100537.94
2022-10-23T09:23:02.961Z,100545.47
2022-10-23T09:25:41.272Z,100543.13
2022-10-23T09:28:20.795Z,100538.94
2022-10-23T09:30:52.239Z,100526.31
2022-10-23T09:33:25.762Z,100543.88
2022-10-23T09:36:00.781Z,100541.38
2022-10-23T09:38:35.772Z,100553.38
2022-10-23T09:41:13.990Z,100553.53
2022-10-23T09:43:45.324Z,100541.28
2022-10-23T09:46:15.785Z,100545.31
2022-10-23T09:48:45.823Z,100553.38
2022-10-23T09:51:21.675Z,100541.31
2022-10-23T09:54:00.540Z,100543.19
2022-10-23T09:56:34.234Z,100543.69
2022-10-23T09:59:07.574Z,100546.56
2022-10-23T10:01:48.289Z,100549.06
2022-10-23T10:04:18.493Z,100548.91
2022-10-23T10:07:02.008Z,100551.41
2022-10-23T10:09:34.901Z,100547.56
2022-10-23T10:12:23.016Z,100543.38
2022-10-23T10:15:23.391Z,100541.19
2022-10-23T10:18:04.919Z,100549.06
2022-10-23T10:20:53.261Z,100548.56
2022-10-23T10:23:35.354Z,100532.00
2022-10-23T10:26:18.647Z,100543.38
2022-10-23T10:28:58.441Z,100548.06
2022-10-23T10:31:40.107Z,100541.53
2022-10-23T10:34:18.125Z,100532.50
2022-10-23T10:36:53.792Z,100535.03
2022-10-23T10:39:38.475Z,100535.16
2022-10-23T10:42:34.048Z,100525.47
2022-10-23T10:45:19.856Z,100523.09
2022-10-23T10:48:04.263Z,100516.38
2022-10-23T10:50:42.880Z,100520.81
2022-10-23T10:53:22.887Z,100514.63
2022-10-23T10:55:56.493Z,100516.50
2022-10-23T10:58:38.918Z,100522.81
2022-10-23T11:01:18.692Z,100508.72
2022-10-23T11:03:55.045Z,100505.78
2022-10-23T11:06:30.073Z,100498.94
2022-10-23T11:09:19.926Z,100490.94
2022-10-23T11:11:53.242Z,100494.81
2022-10-23T11:14:28.289Z,100485.94
2022-10-23T11:17:17.161Z,100488.28
2022-10-23T11:19:52.369Z,100494.41
2022-10-23T11:22:30.550Z,100485.22
2022-10-23T11:25:49.644Z,100487.06
2022-10-23T11:28:31.270Z,100481.19
2022-10-23T11:31:12.287Z,100478.88
2022-10-23T11:34:16.578Z,100476.59
2022-10-23T11:36:49.028Z,100477.09
2022-10-23T11:39:23.391Z,100477.75
2022-10-23T11:41:56.251Z,100476.59
2022-10-23T11:44:30.578Z,100462.72
2022-10-23T11:47:09.292Z,100469.72
2022-10-23T11:49:39.400Z,100473.72
2022-10-23T11:52:25.204Z,100471.59
2022-10-23T11:55:04.918Z,100474.75
2022-10-23T11:57:35.336Z,100469.91
2022-10-23T12:00:06.024Z,100460.75
2022-10-23T12:02:41.845Z,100462.72
2022-10-23T12:05:34.943Z,100462.41
2022-10-23T12:08:08.337Z,100458.88
2022-10-23T12:10:46.626Z,100442.00
2022-10-23T12:13:33.092Z,100450.50
2022-10-23T12:16:03.268Z,100452.03
2022-10-23T12:18:36.546Z,100447.69
2022-10-23T12:21:07.456Z,100450.84
2022-10-23T12:24:05.906Z,100443.34
2022-10-23T12:26:51.448Z,100444.16
2022-10-23T12:29:36.031Z,100444.31
2022-10-23T12:32:20.068Z,100427.44
2022-10-23T12:35:00.139Z,100437.69
2022-10-23T12:37:59.566Z,100432.13
2022-10-23T12:40:30.290Z,100431.75
2022-10-23T12:43:05.075Z,100424.25
2022-10-23T12:45:42.686Z,100418.91
2022-10-23T12:48:22.318Z,100418.72
2022-10-23T12:50:57.651Z,100417.84
2022-10-23T12:53:27.859Z,100413.81
2022-10-23T12:56:01.654Z,100412.41
2022-10-23T12:58:34.149Z,100409.53
2022-10-23T13:01:06.658Z,100411.03
2022-10-23T13:03:37.858Z,100419.75
2022-10-23T13:06:14.446Z,100415.56
2022-10-23T13:08:47.761Z,100412.00
2022-10-23T13:11:21.624Z,100409.38
2022-10-23T13:13:51.862Z,100415.03
2022-10-23T13:16:25.006Z,100406.56
2022-10-23T13:18:56.234Z,100400.31
2022-10-23T13:21:32.850Z,100397.22
2022-10-23T13:24:03.101Z,100400.25
2022-10-23T13:26:42.969Z,100396.94
2022-10-23T13:29:22.704Z,100389.28
2022-10-23T13:31:53.607Z,100386.44
2022-10-23T13:34:29.835Z,100388.28
2022-10-23T13:37:05.632Z,100384.78
2022-10-23T13:39:37.182Z,100390.31
2022-10-23T13:42:16.519Z,100392.72
2022-10-23T13:44:46.977Z,100385.84
2022-10-23T13:47:18.840Z,100375.81
2022-10-23T13:49:49.408Z,100380.19
2022-10-23T13:52:24.341Z,100375.34
2022-10-23T13:54:54.877Z,100376.34
2022-10-23T13:57:25.205Z,100383.28
2022-10-23T13:59:55.809Z,100383.78
2022-10-23T14:02:26.755Z,100374.09
2022-10-23T14:04:57.061Z,100377.59
2022-10-23T14:07:30.923Z,100367.75
2022-10-23T14:10:01.303Z,100368.78
2022-10-23T14:12:33.539Z,100373.09
2022-10-23T14:15:03.746Z,100368.09
2022-10-23T14:17:36.154Z,100364.75
2022-10-23T14:20:07.428Z,100373.81
2022-10-23T14:22:40.485Z,100373.28
2022-10-23T14:25:11.611Z,100372.44
2022-10-23T14:27:41.921Z,100366.91
2022-10-23T14:30:14.294Z,100355.75
2022-10-23T14:32:45.508Z,100345.16
2022-10-23T14:35:16.089Z,100357.16
2022-10-23T14:37:49.110Z,100364.34
2022-10-23T14:40:19.419Z,100359.66
2022-10-23T14:42:49.981Z,100365.31
2022-10-23T14:45:21.786Z,100358.97
2022-10-23T14:47:52.631Z,100363.31
2022-10-23T14:50:22.945Z,100363.31
2022-10-23T14:52:56.964Z,100370.44
2022-10-23T14:55:27.342Z,100368.41
2022-10-23T14:57:58.430Z,100364.16
2022-10-23T15:00:29.679Z,100364.47
2022-10-23T15:03:01.263Z,100374.94
2022-10-23T15:05:32.034Z,100370.66
2022-10-23T15:08:04.906Z,100376.75
2022-10-23T15:10:40.094Z,100367.84
2022-10-23T15:13:10.734Z,100371.78
2022-10-23T15:15:41.414Z,100375.66
2022-10-23T15:18:12.609Z,100373.41
2022-10-23T15:20:45.858Z,100369.44
2022-10-23T15:23:21.062Z,100367.50
2022-10-23T15:25:58.289Z,100373.97
2022-10-23T15:28:29.464Z,100365.69
2022-10-23T15:31:00.101Z,100366.72
2022-10-23T15:33:31.069Z,100363.16
2022-10-23T15:36:04.340Z,100366.72
2022-10-23T15:38:37.297Z,100365.09
2022-10-23T15:41:18.254Z,100362.63
2022-10-23T15:46:39.173Z,100366.34
2022-10-23T15:49:11.396Z,100372.00
2022-10-23T15:51:43.869Z,100364.72
2022-10-23T15:54:19.288Z,100356.91
2022-10-23T15:56:51.354Z,100356.78
2022-10-23T15:59:23.933Z,100356.53
2022-10-23T16:01:56.127Z,100355.56
2022-10-23T16:04:28.656Z,100357.25
2022-10-23T16:06:59.223Z,100362.16
2022-10-23T16:09:35.748Z,100351.25
2022-10-23T16:12:06.054Z,100363.97
2022-10-23T16:14:39.477Z,100361.47
2022-10-23T16:17:10.414Z,100366.22
2022-10-23T16:19:40.926Z,100370.28
2022-10-23T16:22:11.341Z,100365.53
2022-10-23T16:24:44.435Z,100368.59
2022-10-23T16:27:15.158Z,100370.69
2022-10-23T16:29:46.328Z,100372.66
2022-10-23T16:32:16.813Z,100366.06
2022-10-23T16:34:47.273Z,100379.50
2022-10-23T16:37:17.625Z,100383.28
2022-10-23T16:39:51.140Z,100383.56
2022-10-23T16:42:21.199Z,100389.84
2022-10-23T16:44:52.154Z,100387.75
2022-10-23T16:47:22.509Z,100373.78
2022-10-23T16:49:53.454Z,100385.94
2022-10-23T16:52:23.714Z,100385.94
2022-10-23T16:54:57.222Z,100389.72
2022-10-23T16:57:28.130Z,100396.97
2022-10-23T16:59:58.883Z,100398.78
2022-10-23T17:02:30.589Z,100403.97
2022-10-23T17:05:01.258Z,100409.13
2022-10-23T17:07:31.619Z,100420.72
2022-10-23T17:10:08.093Z,100413.03
2022-10-23T17:12:39.057Z,100426.31
2022-10-23T17:15:11.387Z,100423.09
2022-10-23T17:17:45.267Z,100425.03
2022-10-23T17:20:16.958Z,100428.81
2022-10-23T17:22:47.468Z,100423.50
2022-10-23T17:25:20.528Z,100422.06
2022-10-23T17:27:52.175Z,100420.00
2022-10-23T17:30:25.122Z,100432.03
2022-10-23T17:32:58.222Z,100432.72
2022-10-23T17:35:31.767Z,100429.25
2022-10-23T17:38:02.217Z,100436.81
2022-10-23T17:40:36.171Z,100430.47
2022-10-23T17:43:07.277Z,100450.91
2022-10-23T17:45:40.491Z,100448.25
2022-10-23T17:48:11.640Z,100447.84
2022-10-23T17:50:42.274Z,100448.84
2022-10-23T17:53:12.722Z,100440.69
2022-10-23T17:55:46.039Z,100441.41
2022-10-23T17:58:16.784Z,100427.00
2022-10-23T18:00:47.165Z,100438.22
2022-10-23T18:03:19.879Z,100428.56
2022-10-23T18:05:50.935Z,100432.75
2022-10-23T18:08:21.495Z,100422.84
2022-10-23T18:10:54.734Z,100427.47
2022-10-23T18:13:29.665Z,100439.50
2022-10-23T18:16:03.750Z,100425.91
2022-10-23T18:18:35.284Z,100414.88
2022-10-23T18:21:06.434Z,100408.44
2022-10-23T18:23:37.682Z,100418.81
2022-10-23T18:26:18.023Z,100424.25
2022-10-23T18:28:52.449Z,100419.06
2022-10-23T18:31:25.197Z,100425.34
2022-10-23T18:33:58.967Z,100412.63
2022-10-23T18:36:33.297Z,100414.88
2022-10-23T18:39:03.826Z,100410.41
2022-10-23T18:41:40.612Z,100413.75
2022-10-23T18:44:11.805Z,100403.25
2022-10-23T18:46:42.715Z,100402.28
2022-10-23T18:49:13.711Z,100405.50
2022-10-23T18:51:44.722Z,100405.91
2022-10-23T18:54:17.968Z,100400.22
2022-10-23T18:56:53.106Z,100399.38
2022-10-23T18:59:24.387Z,100386.91
2022-10-23T19:01:55.469Z,100390.97
2022-10-23T19:04:25.934Z,100382.72
2022-10-23T19:06:56.437Z,100378.81
2022-10-23T19:09:27.013Z,100374.47
2022-10-23T19:12:04.568Z,100373.06
2022-10-23T19:14:37.628Z,100368.75
2022-10-23T19:17:15.406Z,100362.59
2022-10-23T19:19:49.718Z,100375.16
2022-10-23T19:22:20.681Z,100376.72
2022-10-23T19:24:57.201Z,100377.13
2022-10-23T19:27:31.016Z,100377.97
2022-10-23T19:30:05.633Z,100390.56
2022-10-23T19:32:36.191Z,100390.25
2022-10-23T19:35:06.860Z,100401.19
2022-10-23T19:37:37.978Z,100400.75
2022-10-23T19:40:11.517Z,100400.06
2022-10-23T19:42:45.545Z,100413.06
2022-10-23T19:45:17.872Z,100419.22
2022-10-23T19:47:51.389Z,100414.75
2022-10-23T19:50:22.051Z,100410.25
2022-10-23T19:52:53.875Z,100400.75
2022-10-23T19:55:24.294Z,100398.94
2022-10-23T19:57:57.514Z,100396.97
2022-10-23T20:00:28.302Z,100398.94
2022-10-23T20:02:59.027Z,100396.41
2022-10-23T20:05:29.569Z,100396.41
2022-10-23T20:08:01.809Z,100399.91
2022-10-23T20:10:32.403Z,100395.56
2022-10-23T20:13:18.634Z,100394.75
2022-10-23T20:15:50.330Z,100393.75
2022-10-23T20:18:20.917Z,100379.78
2022-10-23T20:20:51.555Z,100385.22
2022-10-23T20:23:21.950Z,100383.72
2022-10-23T20:25:52.166Z,100387.34
2022-10-23T20:28:25.056Z,100382.75
2022-10-23T20:30:55.367Z,100384.28
2022-10-23T20:33:25.713Z,100397.28
2022-10-23T20:36:09.992Z,100407.31
2022-10-23T20:38:40.325Z,100399.50
2022-10-23T20:41:10.620Z,100397.66
2022-10-23T20:43:44.086Z,100394.75
2022-10-23T20:46:14.937Z,100394.75
2022-10-23T20:48:46.993Z,100390.53
2022-10-23T20:51:20.142Z,100398.94
2022-10-23T20:53:50.931Z,100386.34
2022-10-23T20:56:23.693Z,100398.94
2022-10-23T20:58:56.409Z,100396.41
2022-10-23T21:01:26.944Z,100398.50
2022-10-23T21:03:59.007Z,100404.66
2022-10-23T21:06:45.791Z,100403.69
2022-10-23T21:09:22.158Z,100408.72
2022-10-23T21:11:52.217Z,100403.56
2022-10-23T21:14:24.885Z,100399.34
2022-10-23T21:16:55.299Z,100397.41
2022-10-23T21:19:25.388Z,100404.38
2022-10-23T21:21:55.432Z,100398.22
2022-10-23T21:24:25.990Z,100394.03
2022-10-23T21:26:56.349Z,100392.91
2022-10-23T21:29:28.938Z,100398.09
2022-10-23T21:32:01.232Z,100390.13
2022-10-23T21:34:31.597Z,100394.47
2022-10-23T21:37:17.702Z,100389.28
2022-10-23T21:39:48.985Z,100385.78
2022-10-23T21:42:19.299Z,100384.94
2022-10-23T21:44:51.941Z,100383.13
2022-10-23T21:47:22.103Z,100378.09
2022-10-23T21:49:52.068Z,100375.88
2022-10-23T21:52:22.224Z,100374.47
2022-10-23T21:54:54.740Z,100371.81
2022-10-23T21:57:24.796Z,100373.09
2022-10-23T21:59:57.431Z,100363.31
2022-10-23T22:02:28.051Z,100355.47
2022-10-23T22:04:58.114Z,100363.97
2022-10-23T22:09:59.130Z,100359.38
2022-10-23T22:12:31.621Z,100358.25
2022-10-23T22:15:04.290Z,100355.44
2022-10-23T22:17:34.338Z,100345.25
2022-10-23T22:20:04.411Z,100352.50
2022-10-23T22:22:34.494Z,100358.84
2022-10-23T22:25:04.566Z,100355.16
2022-10-23T22:27:34.577Z,100359.94
2022-10-23T22:30:08.221Z,100353.34
2022-10-23T22:32:38.734Z,100355.19
2022-10-23T22:35:09.790Z,100345.66
2022-10-23T22:37:39.855Z,100343.44
2022-10-23T22:40:10.957Z,100346.78
2022-10-23T22:42:41.162Z,100340.50
2022-10-23T22:45:14.141Z,100334.34
2022-10-23T22:47:44.209Z,100339.66
2022-10-23T22:50:14.491Z,100330.00
2022-10-23T22:52:44.903Z,100336.75
2022-10-23T22:55:15.276Z,100350.03
2022-10-23T22:57:45.648Z,100351.69
2022-10-23T23:00:19.832Z,100351.41
2022-10-23T23:02:49.921Z,100350.69
2022-10-23T23:05:19.954Z,100351.97
2022-10-23T23:07:50.244Z,100363.59
2022-10-23T23:10:20.675Z,100360.22
2022-10-23T23:12:53.217Z,100359.38
2022-10-23T23:15:25.909Z,100359.09
2022-10-23T23:17:56.053Z,100362.31
2022-10-23T23:20:26.167Z,100358.81
2022-10-23T23:22:56.157Z,100362.88
2022-10-23T23:25:26.203Z,100359.50
2022-10-23T23:27:56.352Z,100361.06
2022-10-23T23:30:29.022Z,100358.38
2022-10-23T23:32:59.100Z,100363.56
2022-10-23T23:35:29.545Z,100360.38
2022-10-23T23:37:59.690Z,100359.53
2022-10-23T23:40:29.737Z,100377.13
2022-10-23T23:42:59.834Z,100370.28
2022-10-23T23:45:32.980Z,100358.69
2022-10-23T23:48:03.207Z,100362.59
2022-10-23T23:50:33.301Z,100361.19
2022-10-23T23:53:03.361Z,100364.13
2022-10-23T23:55:33.529Z,100363.00
2022-10-23T23:58:03.741Z,100377.13
